sensor_id;sensor_type;location;lat;lon;timestamp;P1;durP1;ratioP1;P2;durP2;ratioP2
10412;SDS011;5252;42.602;23.386;2022-08-21T00:01:48;74.45;;;17.92;;
10412;SDS011;5252;42.602;23.386;2022-08-21T00:04:14;16.83;;;14.27;;
10412;SDS011;5252;42.602;23.386;2022-08-21T00:06:41;20.88;;;15.57;;
10412;SDS011;5252;42.602;23.386;2022-08-21T00:09:08;18.02;;;14.93;;
10412;SDS011;5252;42.602;23.386;2022-08-21T00:11:35;14.73;;;12.38;;
10412;SDS011;5252;42.602;23.386;2022-08-21T00:14:03;13.98;;;11.10;;
10412;SDS011;5252;42.602;23.386;2022-08-21T00:16:30;17.42;;;11.32;;
10412;SDS011;5252;42.602;23.386;2022-08-21T00:18:57;16.17;;;12.13;;
10412;SDS011;5252;42.602;23.386;2022-08-21T00:21:24;15.25;;;12.52;;
10412;SDS011;5252;42.602;23.386;2022-08-21T00:23:51;14.65;;;11.35;;
10412;SDS011;5252;42.602;23.386;2022-08-21T00:26:17;17.35;;;11.80;;
10412;SDS011;5252;42.602;23.386;2022-08-21T00:28:44;15.23;;;12.25;;
10412;SDS011;5252;42.602;23.386;2022-08-21T00:31:12;17.08;;;12.73;;
10412;SDS011;5252;42.602;23.386;2022-08-21T00:33:38;15.40;;;11.85;;
10412;SDS011;5252;42.602;23.386;2022-08-21T00:36:05;17.13;;;13.05;;
10412;SDS011;5252;42.602;23.386;2022-08-21T00:38:32;15.93;;;12.80;;
10412;SDS011;5252;42.602;23.386;2022-08-21T00:41:00;19.85;;;13.73;;
10412;SDS011;5252;42.602;23.386;2022-08-21T00:43:27;16.30;;;12.93;;
10412;SDS011;5252;42.602;23.386;2022-08-21T00:45:55;19.33;;;14.43;;
10412;SDS011;5252;42.602;23.386;2022-08-21T00:48:24;20.83;;;15.20;;
10412;SDS011;5252;42.602;23.386;2022-08-21T00:50:52;24.30;;;15.38;;
10412;SDS011;5252;42.602;23.386;2022-08-21T00:53:19;22.42;;;14.50;;
10412;SDS011;5252;42.602;23.386;2022-08-21T00:55:46;18.65;;;13.93;;
10412;SDS011;5252;42.602;23.386;2022-08-21T00:58:13;25.80;;;14.93;;
10412;SDS011;5252;42.602;23.386;2022-08-21T01:00:41;26.30;;;15.10;;
10412;SDS011;5252;42.602;23.386;2022-08-21T01:03:09;26.92;;;15.05;;
10412;SDS011;5252;42.602;23.386;2022-08-21T01:05:38;23.55;;;15.60;;
10412;SDS011;5252;42.602;23.386;2022-08-21T01:08:04;20.33;;;14.52;;
10412;SDS011;5252;42.602;23.386;2022-08-21T01:10:32;20.77;;;14.73;;
10412;SDS011;5252;42.602;23.386;2022-08-21T01:13:00;23.85;;;15.50;;
10412;SDS011;5252;42.602;23.386;2022-08-21T01:15:29;22.23;;;13.90;;
10412;SDS011;5252;42.602;23.386;2022-08-21T01:17:56;26.83;;;18.23;;
10412;SDS011;5252;42.602;23.386;2022-08-21T01:20:22;28.55;;;19.10;;
10412;SDS011;5252;42.602;23.386;2022-08-21T01:22:51;31.10;;;20.17;;
10412;SDS011;5252;42.602;23.386;2022-08-21T01:25:18;31.30;;;21.38;;
10412;SDS011;5252;42.602;23.386;2022-08-21T01:27:45;32.00;;;21.42;;
10412;SDS011;5252;42.602;23.386;2022-08-21T01:30:13;35.13;;;21.15;;
10412;SDS011;5252;42.602;23.386;2022-08-21T01:32:40;31.63;;;18.77;;
10412;SDS011;5252;42.602;23.386;2022-08-21T01:35:07;30.80;;;19.15;;
10412;SDS011;5252;42.602;23.386;2022-08-21T01:37:34;31.55;;;19.25;;
10412;SDS011;5252;42.602;23.386;2022-08-21T01:40:02;25.33;;;16.75;;
10412;SDS011;5252;42.602;23.386;2022-08-21T01:42:29;30.23;;;18.30;;
10412;SDS011;5252;42.602;23.386;2022-08-21T01:44:56;23.90;;;16.40;;
10412;SDS011;5252;42.602;23.386;2022-08-21T01:47:22;22.25;;;15.10;;
10412;SDS011;5252;42.602;23.386;2022-08-21T01:49:49;19.98;;;12.70;;
10412;SDS011;5252;42.602;23.386;2022-08-21T01:52:15;21.23;;;13.98;;
10412;SDS011;5252;42.602;23.386;2022-08-21T01:54:42;17.13;;;10.85;;
10412;SDS011;5252;42.602;23.386;2022-08-21T01:57:10;19.92;;;13.07;;
10412;SDS011;5252;42.602;23.386;2022-08-21T01:59:38;19.23;;;11.88;;
10412;SDS011;5252;42.602;23.386;2022-08-21T02:02:05;14.02;;;10.95;;
10412;SDS011;5252;42.602;23.386;2022-08-21T02:04:31;13.23;;;9.60;;
10412;SDS011;5252;42.602;23.386;2022-08-21T02:06:58;13.63;;;9.27;;
10412;SDS011;5252;42.602;23.386;2022-08-21T02:09:25;12.82;;;8.57;;
10412;SDS011;5252;42.602;23.386;2022-08-21T02:11:51;9.10;;;7.40;;
10412;SDS011;5252;42.602;23.386;2022-08-21T02:14:20;11.57;;;7.68;;
10412;SDS011;5252;42.602;23.386;2022-08-21T02:16:46;11.57;;;8.35;;
10412;SDS011;5252;42.602;23.386;2022-08-21T02:19:14;11.75;;;7.90;;
10412;SDS011;5252;42.602;23.386;2022-08-21T02:21:41;13.65;;;7.85;;
10412;SDS011;5252;42.602;23.386;2022-08-21T02:24:07;8.52;;;7.10;;
10412;SDS011;5252;42.602;23.386;2022-08-21T02:26:34;9.35;;;8.05;;
10412;SDS011;5252;42.602;23.386;2022-08-21T02:29:01;10.35;;;7.65;;
10412;SDS011;5252;42.602;23.386;2022-08-21T02:31:30;10.45;;;7.18;;
10412;SDS011;5252;42.602;23.386;2022-08-21T02:33:57;8.70;;;7.63;;
10412;SDS011;5252;42.602;23.386;2022-08-21T02:36:24;9.18;;;8.02;;
10412;SDS011;5252;42.602;23.386;2022-08-21T02:38:51;10.85;;;7.82;;
10412;SDS011;5252;42.602;23.386;2022-08-21T02:41:18;9.48;;;8.45;;
10412;SDS011;5252;42.602;23.386;2022-08-21T02:43:45;10.70;;;7.75;;
10412;SDS011;5252;42.602;23.386;2022-08-21T02:46:13;13.68;;;8.38;;
10412;SDS011;5252;42.602;23.386;2022-08-21T02:48:41;13.23;;;8.73;;
10412;SDS011;5252;42.602;23.386;2022-08-21T02:51:08;10.85;;;8.45;;
10412;SDS011;5252;42.602;23.386;2022-08-21T02:53:35;10.98;;;7.25;;
10412;SDS011;5252;42.602;23.386;2022-08-21T02:56:03;12.10;;;8.65;;
10412;SDS011;5252;42.602;23.386;2022-08-21T02:58:30;12.13;;;7.80;;
10412;SDS011;5252;42.602;23.386;2022-08-21T03:00:57;10.45;;;7.97;;
10412;SDS011;5252;42.602;23.386;2022-08-21T03:03:24;13.88;;;8.75;;
10412;SDS011;5252;42.602;23.386;2022-08-21T03:05:53;10.18;;;7.80;;
10412;SDS011;5252;42.602;23.386;2022-08-21T03:08:20;11.32;;;7.18;;
10412;SDS011;5252;42.602;23.386;2022-08-21T03:10:49;10.68;;;7.32;;
10412;SDS011;5252;42.602;23.386;2022-08-21T03:13:16;7.93;;;7.15;;
10412;SDS011;5252;42.602;23.386;2022-08-21T03:15:44;9.77;;;7.10;;
10412;SDS011;5252;42.602;23.386;2022-08-21T03:18:11;9.75;;;7.05;;
10412;SDS011;5252;42.602;23.386;2022-08-21T03:20:38;7.30;;;6.45;;
10412;SDS011;5252;42.602;23.386;2022-08-21T03:23:07;9.77;;;6.72;;
10412;SDS011;5252;42.602;23.386;2022-08-21T03:25:34;9.65;;;6.55;;
10412;SDS011;5252;42.602;23.386;2022-08-21T03:28:01;8.75;;;6.95;;
10412;SDS011;5252;42.602;23.386;2022-08-21T03:30:28;10.77;;;6.70;;
10412;SDS011;5252;42.602;23.386;2022-08-21T03:32:56;7.07;;;5.68;;
10412;SDS011;5252;42.602;23.386;2022-08-21T03:35:22;8.07;;;5.45;;
10412;SDS011;5252;42.602;23.386;2022-08-21T03:37:49;7.10;;;5.68;;
10412;SDS011;5252;42.602;23.386;2022-08-21T03:40:17;11.50;;;6.18;;
10412;SDS011;5252;42.602;23.386;2022-08-21T03:42:45;10.50;;;6.20;;
10412;SDS011;5252;42.602;23.386;2022-08-21T03:45:12;7.88;;;5.75;;
10412;SDS011;5252;42.602;23.386;2022-08-21T03:47:39;8.20;;;6.72;;
10412;SDS011;5252;42.602;23.386;2022-08-21T03:50:16;7.57;;;5.72;;
10412;SDS011;5252;42.602;23.386;2022-08-21T03:52:42;6.30;;;5.60;;
10412;SDS011;5252;42.602;23.386;2022-08-21T03:55:09;7.07;;;5.93;;
10412;SDS011;5252;42.602;23.386;2022-08-21T03:57:37;7.93;;;6.03;;
10412;SDS011;5252;42.602;23.386;2022-08-21T04:00:04;6.97;;;5.93;;
10412;SDS011;5252;42.602;23.386;2022-08-21T04:02:33;6.25;;;5.65;;
10412;SDS011;5252;42.602;23.386;2022-08-21T04:04:59;8.60;;;5.38;;
10412;SDS011;5252;42.602;23.386;2022-08-21T04:07:26;7.50;;;5.45;;
10412;SDS011;5252;42.602;23.386;2022-08-21T04:09:52;7.97;;;5.80;;
10412;SDS011;5252;42.602;23.386;2022-08-21T04:12:19;6.72;;;5.60;;
10412;SDS011;5252;42.602;23.386;2022-08-21T04:14:47;9.07;;;5.32;;
10412;SDS011;5252;42.602;23.386;2022-08-21T04:17:16;6.30;;;5.53;;
10412;SDS011;5252;42.602;23.386;2022-08-21T04:19:42;9.60;;;5.43;;
10412;SDS011;5252;42.602;23.386;2022-08-21T04:22:09;6.18;;;4.80;;
10412;SDS011;5252;42.602;23.386;2022-08-21T04:24:36;8.10;;;5.30;;
10412;SDS011;5252;42.602;23.386;2022-08-21T04:27:02;7.47;;;5.05;;
10412;SDS011;5252;42.602;23.386;2022-08-21T04:29:29;5.90;;;4.90;;
10412;SDS011;5252;42.602;23.386;2022-08-21T04:31:57;6.00;;;4.85;;
10412;SDS011;5252;42.602;23.386;2022-08-21T04:34:24;9.43;;;4.90;;
10412;SDS011;5252;42.602;23.386;2022-08-21T04:36:50;8.15;;;4.88;;
10412;SDS011;5252;42.602;23.386;2022-08-21T04:39:17;5.50;;;4.70;;
10412;SDS011;5252;42.602;23.386;2022-08-21T04:41:43;6.55;;;5.30;;
10412;SDS011;5252;42.602;23.386;2022-08-21T04:44:11;6.75;;;4.38;;
10412;SDS011;5252;42.602;23.386;2022-08-21T04:46:37;7.68;;;4.88;;
10412;SDS011;5252;42.602;23.386;2022-08-21T04:49:05;6.25;;;4.78;;
10412;SDS011;5252;42.602;23.386;2022-08-21T04:51:33;5.75;;;4.20;;
10412;SDS011;5252;42.602;23.386;2022-08-21T04:54:02;7.65;;;5.07;;
10412;SDS011;5252;42.602;23.386;2022-08-21T04:56:33;5.10;;;4.57;;
10412;SDS011;5252;42.602;23.386;2022-08-21T04:59:02;6.03;;;5.10;;
10412;SDS011;5252;42.602;23.386;2022-08-21T05:01:30;8.30;;;5.00;;
10412;SDS011;5252;42.602;23.386;2022-08-21T05:03:59;7.88;;;5.47;;
10412;SDS011;5252;42.602;23.386;2022-08-21T05:06:28;6.82;;;5.22;;
10412;SDS011;5252;42.602;23.386;2022-08-21T05:08:56;6.70;;;4.80;;
10412;SDS011;5252;42.602;23.386;2022-08-21T05:11:23;8.98;;;5.05;;
10412;SDS011;5252;42.602;23.386;2022-08-21T05:13:49;6.68;;;4.95;;
10412;SDS011;5252;42.602;23.386;2022-08-21T05:16:16;5.95;;;4.28;;
10412;SDS011;5252;42.602;23.386;2022-08-21T05:18:43;6.72;;;4.40;;
10412;SDS011;5252;42.602;23.386;2022-08-21T05:21:09;7.28;;;4.45;;
10412;SDS011;5252;42.602;23.386;2022-08-21T05:23:37;7.18;;;4.70;;
10412;SDS011;5252;42.602;23.386;2022-08-21T05:26:04;5.72;;;4.80;;
10412;SDS011;5252;42.602;23.386;2022-08-21T05:28:30;6.80;;;4.53;;
10412;SDS011;5252;42.602;23.386;2022-08-21T05:30:57;7.00;;;4.38;;
10412;SDS011;5252;42.602;23.386;2022-08-21T05:33:23;8.13;;;4.38;;
10412;SDS011;5252;42.602;23.386;2022-08-21T05:35:50;4.90;;;4.25;;
10412;SDS011;5252;42.602;23.386;2022-08-21T05:38:17;7.03;;;4.70;;
10412;SDS011;5252;42.602;23.386;2022-08-21T05:40:45;5.35;;;4.07;;
10412;SDS011;5252;42.602;23.386;2022-08-21T05:43:12;5.20;;;3.60;;
10412;SDS011;5252;42.602;23.386;2022-08-21T05:45:39;6.78;;;3.97;;
10412;SDS011;5252;42.602;23.386;2022-08-21T05:48:06;5.63;;;3.83;;
10412;SDS011;5252;42.602;23.386;2022-08-21T05:50:33;4.60;;;3.90;;
10412;SDS011;5252;42.602;23.386;2022-08-21T05:53:00;6.07;;;4.03;;
10412;SDS011;5252;42.602;23.386;2022-08-21T05:55:27;5.28;;;3.67;;
10412;SDS011;5252;42.602;23.386;2022-08-21T05:57:54;5.20;;;3.90;;
10412;SDS011;5252;42.602;23.386;2022-08-21T06:00:21;7.38;;;4.30;;
10412;SDS011;5252;42.602;23.386;2022-08-21T06:02:48;4.13;;;3.45;;
10412;SDS011;5252;42.602;23.386;2022-08-21T06:05:15;6.63;;;3.83;;
10412;SDS011;5252;42.602;23.386;2022-08-21T06:07:42;6.78;;;3.78;;
10412;SDS011;5252;42.602;23.386;2022-08-21T06:10:09;6.63;;;4.20;;
10412;SDS011;5252;42.602;23.386;2022-08-21T06:12:35;7.07;;;4.63;;
10412;SDS011;5252;42.602;23.386;2022-08-21T06:15:04;7.85;;;5.22;;
10412;SDS011;5252;42.602;23.386;2022-08-21T06:17:31;8.13;;;4.97;;
10412;SDS011;5252;42.602;23.386;2022-08-21T06:19:57;7.75;;;4.97;;
10412;SDS011;5252;42.602;23.386;2022-08-21T06:22:24;8.57;;;5.82;;
10412;SDS011;5252;42.602;23.386;2022-08-21T06:24:51;7.13;;;5.88;;
10412;SDS011;5252;42.602;23.386;2022-08-21T06:27:17;7.10;;;5.50;;
10412;SDS011;5252;42.602;23.386;2022-08-21T06:29:44;6.13;;;3.83;;
10412;SDS011;5252;42.602;23.386;2022-08-21T06:32:12;7.57;;;4.68;;
10412;SDS011;5252;42.602;23.386;2022-08-21T06:34:39;8.13;;;5.20;;
10412;SDS011;5252;42.602;23.386;2022-08-21T06:37:06;7.15;;;5.03;;
10412;SDS011;5252;42.602;23.386;2022-08-21T06:39:33;7.10;;;4.95;;
10412;SDS011;5252;42.602;23.386;2022-08-21T06:42:00;5.25;;;4.18;;
10412;SDS011;5252;42.602;23.386;2022-08-21T06:44:27;7.53;;;4.78;;
10412;SDS011;5252;42.602;23.386;2022-08-21T06:46:53;7.22;;;4.80;;
10412;SDS011;5252;42.602;23.386;2022-08-21T06:49:21;5.43;;;4.45;;
10412;SDS011;5252;42.602;23.386;2022-08-21T06:51:48;6.45;;;4.85;;
10412;SDS011;5252;42.602;23.386;2022-08-21T06:54:15;7.95;;;4.22;;
10412;SDS011;5252;42.602;23.386;2022-08-21T06:56:42;8.15;;;4.25;;
10412;SDS011;5252;42.602;23.386;2022-08-21T06:59:08;8.95;;;4.50;;
10412;SDS011;5252;42.602;23.386;2022-08-21T07:01:34;6.85;;;3.90;;
10412;SDS011;5252;42.602;23.386;2022-08-21T07:04:01;6.45;;;3.60;;
10412;SDS011;5252;42.602;23.386;2022-08-21T07:06:29;6.63;;;3.60;;
10412;SDS011;5252;42.602;23.386;2022-08-21T07:08:56;6.38;;;3.50;;
10412;SDS011;5252;42.602;23.386;2022-08-21T07:11:23;7.40;;;4.05;;
10412;SDS011;5252;42.602;23.386;2022-08-21T07:13:50;7.25;;;4.00;;
10412;SDS011;5252;42.602;23.386;2022-08-21T07:16:17;5.25;;;3.50;;
10412;SDS011;5252;42.602;23.386;2022-08-21T07:18:44;7.03;;;3.92;;
10412;SDS011;5252;42.602;23.386;2022-08-21T07:21:11;7.47;;;3.90;;
10412;SDS011;5252;42.602;23.386;2022-08-21T07:23:39;6.63;;;3.30;;
10412;SDS011;5252;42.602;23.386;2022-08-21T07:26:06;5.07;;;3.20;;
10412;SDS011;5252;42.602;23.386;2022-08-21T07:28:33;4.57;;;3.13;;
10412;SDS011;5252;42.602;23.386;2022-08-21T07:31:00;6.70;;;3.53;;
10412;SDS011;5252;42.602;23.386;2022-08-21T07:33:28;8.52;;;4.32;;
10412;SDS011;5252;42.602;23.386;2022-08-21T07:35:55;6.20;;;4.10;;
10412;SDS011;5252;42.602;23.386;2022-08-21T07:38:22;6.65;;;4.25;;
10412;SDS011;5252;42.602;23.386;2022-08-21T07:40:50;7.25;;;4.45;;
10412;SDS011;5252;42.602;23.386;2022-08-21T07:43:17;6.50;;;3.78;;
10412;SDS011;5252;42.602;23.386;2022-08-21T07:45:44;4.97;;;4.10;;
10412;SDS011;5252;42.602;23.386;2022-08-21T07:48:11;6.50;;;4.40;;
10412;SDS011;5252;42.602;23.386;2022-08-21T07:50:37;6.70;;;4.20;;
10412;SDS011;5252;42.602;23.386;2022-08-21T07:53:04;6.57;;;3.83;;
10412;SDS011;5252;42.602;23.386;2022-08-21T07:55:30;9.07;;;4.57;;
10412;SDS011;5252;42.602;23.386;2022-08-21T07:57:58;6.43;;;4.50;;
10412;SDS011;5252;42.602;23.386;2022-08-21T08:00:25;9.38;;;4.72;;
10412;SDS011;5252;42.602;23.386;2022-08-21T08:02:53;8.55;;;4.63;;
10412;SDS011;5252;42.602;23.386;2022-08-21T08:05:21;6.97;;;4.20;;
10412;SDS011;5252;42.602;23.386;2022-08-21T08:07:47;9.38;;;4.78;;
10412;SDS011;5252;42.602;23.386;2022-08-21T08:10:14;8.13;;;4.47;;
10412;SDS011;5252;42.602;23.386;2022-08-21T08:12:41;8.55;;;5.03;;
10412;SDS011;5252;42.602;23.386;2022-08-21T08:15:10;7.20;;;4.50;;
10412;SDS011;5252;42.602;23.386;2022-08-21T08:17:37;8.80;;;4.85;;
10412;SDS011;5252;42.602;23.386;2022-08-21T08:20:04;7.97;;;5.35;;
10412;SDS011;5252;42.602;23.386;2022-08-21T08:22:33;5.38;;;4.68;;
10412;SDS011;5252;42.602;23.386;2022-08-21T08:24:59;5.60;;;4.25;;
10412;SDS011;5252;42.602;23.386;2022-08-21T08:27:26;7.13;;;5.03;;
10412;SDS011;5252;42.602;23.386;2022-08-21T08:29:53;8.57;;;4.43;;
10412;SDS011;5252;42.602;23.386;2022-08-21T08:32:20;6.75;;;5.05;;
10412;SDS011;5252;42.602;23.386;2022-08-21T08:34:47;8.43;;;5.00;;
10412;SDS011;5252;42.602;23.386;2022-08-21T08:37:16;9.95;;;5.20;;
10412;SDS011;5252;42.602;23.386;2022-08-21T08:39:43;8.73;;;4.95;;
10412;SDS011;5252;42.602;23.386;2022-08-21T08:42:11;7.90;;;5.47;;
10412;SDS011;5252;42.602;23.386;2022-08-21T08:44:38;6.40;;;4.28;;
10412;SDS011;5252;42.602;23.386;2022-08-21T08:47:06;7.80;;;3.95;;
10412;SDS011;5252;42.602;23.386;2022-08-21T08:49:37;5.30;;;4.15;;
10412;SDS011;5252;42.602;23.386;2022-08-21T08:52:05;6.00;;;4.55;;
10412;SDS011;5252;42.602;23.386;2022-08-21T08:54:35;5.95;;;4.35;;
10412;SDS011;5252;42.602;23.386;2022-08-21T08:57:04;5.45;;;4.57;;
10412;SDS011;5252;42.602;23.386;2022-08-21T08:59:34;8.75;;;5.13;;
10412;SDS011;5252;42.602;23.386;2022-08-21T09:02:02;7.10;;;5.13;;
10412;SDS011;5252;42.602;23.386;2022-08-21T09:04:29;7.35;;;4.38;;
10412;SDS011;5252;42.602;23.386;2022-08-21T09:07:01;8.05;;;5.00;;
10412;SDS011;5252;42.602;23.386;2022-08-21T09:09:37;9.20;;;4.85;;
10412;SDS011;5252;42.602;23.386;2022-08-21T09:12:08;7.25;;;4.70;;
10412;SDS011;5252;42.602;23.386;2022-08-21T09:14:39;7.97;;;5.22;;
10412;SDS011;5252;42.602;23.386;2022-08-21T09:17:13;10.63;;;5.50;;
10412;SDS011;5252;42.602;23.386;2022-08-21T09:19:45;8.73;;;4.85;;
10412;SDS011;5252;42.602;23.386;2022-08-21T09:22:17;11.00;;;6.18;;
10412;SDS011;5252;42.602;23.386;2022-08-21T09:24:48;15.15;;;7.70;;
10412;SDS011;5252;42.602;23.386;2022-08-21T09:27:19;8.63;;;4.63;;
10412;SDS011;5252;42.602;23.386;2022-08-21T09:29:46;7.95;;;4.85;;
10412;SDS011;5252;42.602;23.386;2022-08-21T09:32:16;7.50;;;4.93;;
10412;SDS011;5252;42.602;23.386;2022-08-21T09:34:54;7.03;;;4.15;;
10412;SDS011;5252;42.602;23.386;2022-08-21T09:37:22;6.43;;;3.60;;
10412;SDS011;5252;42.602;23.386;2022-08-21T09:39:49;5.82;;;3.90;;
10412;SDS011;5252;42.602;23.386;2022-08-21T09:42:21;5.07;;;3.42;;
10412;SDS011;5252;42.602;23.386;2022-08-21T09:44:48;5.53;;;4.00;;
10412;SDS011;5252;42.602;23.386;2022-08-21T09:47:18;10.88;;;4.75;;
10412;SDS011;5252;42.602;23.386;2022-08-21T09:49:45;7.10;;;4.05;;
10412;SDS011;5252;42.602;23.386;2022-08-21T09:52:15;6.10;;;3.83;;
10412;SDS011;5252;42.602;23.386;2022-08-21T09:54:43;6.90;;;3.78;;
10412;SDS011;5252;42.602;23.386;2022-08-21T09:57:12;6.15;;;3.78;;
10412;SDS011;5252;42.602;23.386;2022-08-21T10:00:06;5.55;;;4.28;;
10412;SDS011;5252;42.602;23.386;2022-08-21T10:02:34;6.18;;;4.00;;
10412;SDS011;5252;42.602;23.386;2022-08-21T10:05:02;6.10;;;4.03;;
10412;SDS011;5252;42.602;23.386;2022-08-21T10:07:30;7.80;;;4.65;;
10412;SDS011;5252;42.602;23.386;2022-08-21T10:09:59;6.50;;;4.63;;
10412;SDS011;5252;42.602;23.386;2022-08-21T10:12:27;7.03;;;4.50;;
10412;SDS011;5252;42.602;23.386;2022-08-21T10:14:58;7.85;;;4.38;;
10412;SDS011;5252;42.602;23.386;2022-08-21T10:17:29;6.65;;;4.72;;
10412;SDS011;5252;42.602;23.386;2022-08-21T10:20:00;6.18;;;4.35;;
10412;SDS011;5252;42.602;23.386;2022-08-21T10:22:31;5.25;;;3.78;;
10412;SDS011;5252;42.602;23.386;2022-08-21T10:25:04;7.22;;;3.65;;
10412;SDS011;5252;42.602;23.386;2022-08-21T10:27:33;4.63;;;3.50;;
10412;SDS011;5252;42.602;23.386;2022-08-21T10:30:05;6.93;;;3.90;;
10412;SDS011;5252;42.602;23.386;2022-08-21T10:35:17;5.95;;;3.63;;
10412;SDS011;5252;42.602;23.386;2022-08-21T10:37:58;8.98;;;4.43;;
10412;SDS011;5252;42.602;23.386;2022-08-21T10:40:29;8.27;;;4.63;;
10412;SDS011;5252;42.602;23.386;2022-08-21T10:43:01;6.20;;;3.80;;
10412;SDS011;5252;42.602;23.386;2022-08-21T10:45:36;6.30;;;3.75;;
10412;SDS011;5252;42.602;23.386;2022-08-21T10:48:06;6.68;;;3.75;;
10412;SDS011;5252;42.602;23.386;2022-08-21T10:50:34;6.50;;;3.40;;
10412;SDS011;5252;42.602;23.386;2022-08-21T10:53:07;7.55;;;3.78;;
10412;SDS011;5252;42.602;23.386;2022-08-21T10:55:39;5.47;;;4.05;;
10412;SDS011;5252;42.602;23.386;2022-08-21T10:58:08;4.63;;;3.60;;
10412;SDS011;5252;42.602;23.386;2022-08-21T11:00:38;9.13;;;3.70;;
10412;SDS011;5252;42.602;23.386;2022-08-21T11:03:06;8.07;;;3.83;;
10412;SDS011;5252;42.602;23.386;2022-08-21T11:05:35;4.57;;;3.60;;
10412;SDS011;5252;42.602;23.386;2022-08-21T11:08:06;5.63;;;3.42;;
10412;SDS011;5252;42.602;23.386;2022-08-21T11:10:39;6.78;;;3.58;;
10412;SDS011;5252;42.602;23.386;2022-08-21T11:13:08;5.13;;;3.47;;
10412;SDS011;5252;42.602;23.386;2022-08-21T11:15:39;6.85;;;3.30;;
10412;SDS011;5252;42.602;23.386;2022-08-21T11:18:17;6.20;;;3.25;;
10412;SDS011;5252;42.602;23.386;2022-08-21T11:20:47;6.50;;;3.47;;
10412;SDS011;5252;42.602;23.386;2022-08-21T11:23:16;4.57;;;3.40;;
10412;SDS011;5252;42.602;23.386;2022-08-21T11:25:48;5.53;;;3.45;;
10412;SDS011;5252;42.602;23.386;2022-08-21T11:28:20;5.68;;;3.70;;
10412;SDS011;5252;42.602;23.386;2022-08-21T11:30:50;7.05;;;3.40;;
10412;SDS011;5252;42.602;23.386;2022-08-21T11:33:23;9.20;;;3.92;;
10412;SDS011;5252;42.602;23.386;2022-08-21T11:35:55;13.32;;;5.47;;
10412;SDS011;5252;42.602;23.386;2022-08-21T11:38:31;7.30;;;4.25;;
10412;SDS011;5252;42.602;23.386;2022-08-21T11:41:19;9.05;;;4.68;;
10412;SDS011;5252;42.602;23.386;2022-08-21T11:43:49;5.28;;;3.60;;
10412;SDS011;5252;42.602;23.386;2022-08-21T11:46:23;6.50;;;3.53;;
10412;SDS011;5252;42.602;23.386;2022-08-21T11:49:04;5.18;;;3.22;;
10412;SDS011;5252;42.602;23.386;2022-08-21T11:51:33;4.28;;;3.35;;
10412;SDS011;5252;42.602;23.386;2022-08-21T11:54:03;5.43;;;3.95;;
10412;SDS011;5252;42.602;23.386;2022-08-21T11:56:34;4.88;;;4.03;;
10412;SDS011;5252;42.602;23.386;2022-08-21T11:59:02;7.97;;;3.97;;
10412;SDS011;5252;42.602;23.386;2022-08-21T12:01:31;4.05;;;3.60;;
10412;SDS011;5252;42.602;23.386;2022-08-21T12:04:00;4.35;;;3.50;;
10412;SDS011;5252;42.602;23.386;2022-08-21T12:06:29;7.82;;;3.85;;
10412;SDS011;5252;42.602;23.386;2022-08-21T12:08:57;5.15;;;4.10;;
10412;SDS011;5252;42.602;23.386;2022-08-21T12:11:24;6.68;;;3.85;;
10412;SDS011;5252;42.602;23.386;2022-08-21T12:13:56;6.43;;;3.83;;
10412;SDS011;5252;42.602;23.386;2022-08-21T12:16:30;5.93;;;3.95;;
10412;SDS011;5252;42.602;23.386;2022-08-21T12:19:02;6.32;;;3.67;;
10412;SDS011;5252;42.602;23.386;2022-08-21T12:21:29;4.47;;;3.60;;
10412;SDS011;5252;42.602;23.386;2022-08-21T12:24:00;4.85;;;3.78;;
10412;SDS011;5252;42.602;23.386;2022-08-21T12:26:28;4.65;;;3.63;;
10412;SDS011;5252;42.602;23.386;2022-08-21T12:29:06;7.63;;;4.10;;
10412;SDS011;5252;42.602;23.386;2022-08-21T12:31:34;8.50;;;4.03;;
10412;SDS011;5252;42.602;23.386;2022-08-21T12:34:01;6.53;;;4.05;;
10412;SDS011;5252;42.602;23.386;2022-08-21T12:36:30;6.35;;;3.83;;
10412;SDS011;5252;42.602;23.386;2022-08-21T12:39:01;8.70;;;4.60;;
10412;SDS011;5252;42.602;23.386;2022-08-21T12:41:32;6.68;;;4.13;;
10412;SDS011;5252;42.602;23.386;2022-08-21T12:44:00;8.18;;;3.97;;
10412;SDS011;5252;42.602;23.386;2022-08-21T12:46:30;5.25;;;4.25;;
10412;SDS011;5252;42.602;23.386;2022-08-21T12:49:00;8.27;;;4.50;;
10412;SDS011;5252;42.602;23.386;2022-08-21T12:51:28;7.00;;;4.10;;
10412;SDS011;5252;42.602;23.386;2022-08-21T12:53:57;7.43;;;3.97;;
10412;SDS011;5252;42.602;23.386;2022-08-21T12:56:24;7.25;;;4.28;;
10412;SDS011;5252;42.602;23.386;2022-08-21T12:58:51;4.57;;;3.95;;
10412;SDS011;5252;42.602;23.386;2022-08-21T13:01:21;7.43;;;4.43;;
10412;SDS011;5252;42.602;23.386;2022-08-21T13:03:50;7.20;;;4.20;;
10412;SDS011;5252;42.602;23.386;2022-08-21T13:06:19;5.65;;;3.85;;
10412;SDS011;5252;42.602;23.386;2022-08-21T13:08:46;9.50;;;4.57;;
10412;SDS011;5252;42.602;23.386;2022-08-21T13:11:14;5.85;;;4.88;;
10412;SDS011;5252;42.602;23.386;2022-08-21T13:13:42;5.90;;;4.80;;
10412;SDS011;5252;42.602;23.386;2022-08-21T13:16:09;7.93;;;4.68;;
10412;SDS011;5252;42.602;23.386;2022-08-21T13:18:36;5.78;;;4.43;;
10412;SDS011;5252;42.602;23.386;2022-08-21T13:21:09;6.22;;;4.65;;
10412;SDS011;5252;42.602;23.386;2022-08-21T13:23:36;5.07;;;4.30;;
10412;SDS011;5252;42.602;23.386;2022-08-21T13:26:11;6.93;;;4.55;;
10412;SDS011;5252;42.602;23.386;2022-08-21T13:28:38;7.85;;;4.68;;
10412;SDS011;5252;42.602;23.386;2022-08-21T13:31:06;8.60;;;5.30;;
10412;SDS011;5252;42.602;23.386;2022-08-21T13:33:34;6.13;;;4.43;;
10412;SDS011;5252;42.602;23.386;2022-08-21T13:36:02;6.57;;;4.72;;
10412;SDS011;5252;42.602;23.386;2022-08-21T13:38:31;7.43;;;4.88;;
10412;SDS011;5252;42.602;23.386;2022-08-21T13:41:03;6.78;;;5.13;;
10412;SDS011;5252;42.602;23.386;2022-08-21T13:43:31;6.50;;;5.00;;
10412;SDS011;5252;42.602;23.386;2022-08-21T13:45:59;6.03;;;4.82;;
10412;SDS011;5252;42.602;23.386;2022-08-21T13:48:27;10.00;;;5.25;;
10412;SDS011;5252;42.602;23.386;2022-08-21T13:50:54;6.35;;;4.80;;
10412;SDS011;5252;42.602;23.386;2022-08-21T13:53:22;6.80;;;5.10;;
10412;SDS011;5252;42.602;23.386;2022-08-21T13:55:50;7.65;;;5.00;;
10412;SDS011;5252;42.602;23.386;2022-08-21T13:58:23;4.53;;;4.10;;
10412;SDS011;5252;42.602;23.386;2022-08-21T14:00:50;6.50;;;4.72;;
10412;SDS011;5252;42.602;23.386;2022-08-21T14:03:23;7.07;;;4.40;;
10412;SDS011;5252;42.602;23.386;2022-08-21T14:05:52;7.72;;;4.65;;
10412;SDS011;5252;42.602;23.386;2022-08-21T14:08:20;7.43;;;4.30;;
10412;SDS011;5252;42.602;23.386;2022-08-21T14:10:51;9.35;;;4.15;;
10412;SDS011;5252;42.602;23.386;2022-08-21T14:16:03;8.80;;;4.97;;
10412;SDS011;5252;42.602;23.386;2022-08-21T14:18:42;5.80;;;4.53;;
10412;SDS011;5252;42.602;23.386;2022-08-21T14:21:09;9.05;;;5.10;;
10412;SDS011;5252;42.602;23.386;2022-08-21T14:23:36;6.93;;;4.65;;
10412;SDS011;5252;42.602;23.386;2022-08-21T14:26:05;5.22;;;4.57;;
10412;SDS011;5252;42.602;23.386;2022-08-21T14:28:32;7.32;;;4.28;;
10412;SDS011;5252;42.602;23.386;2022-08-21T14:31:10;5.75;;;4.07;;
10412;SDS011;5252;42.602;23.386;2022-08-21T14:33:37;6.07;;;4.10;;
10412;SDS011;5252;42.602;23.386;2022-08-21T14:36:04;7.15;;;3.92;;
10412;SDS011;5252;42.602;23.386;2022-08-21T14:38:31;5.32;;;4.15;;
10412;SDS011;5252;42.602;23.386;2022-08-21T14:40:58;5.90;;;3.90;;
10412;SDS011;5252;42.602;23.386;2022-08-21T14:43:27;4.80;;;3.63;;
10412;SDS011;5252;42.602;23.386;2022-08-21T14:45:54;8.30;;;4.20;;
10412;SDS011;5252;42.602;23.386;2022-08-21T14:48:21;7.07;;;3.92;;
10412;SDS011;5252;42.602;23.386;2022-08-21T14:50:47;5.35;;;3.80;;
10412;SDS011;5252;42.602;23.386;2022-08-21T14:53:14;7.93;;;3.63;;
10412;SDS011;5252;42.602;23.386;2022-08-21T14:55:41;7.95;;;4.45;;